sensor_id;sensor_type;location;lat;lon;timestamp;temperature;humidity
40151;DHT22;25866;52.420;10.640;2023-09-12T00:00:47;19.90;99.90
40151;DHT22;25866;52.420;10.640;2023-09-12T00:03:20;19.90;99.90
40151;DHT22;25866;52.420;10.640;2023-09-12T00:05:55;20.00;99.90
40151;DHT22;25866;52.420;10.640;2023-09-12T00:08:23;20.00;99.90
40151;DHT22;25866;52.420;10.640;2023-09-12T00:11:06;20.00;99.90
40151;DHT22;25866;52.420;10.640;2023-09-12T00:13:36;19.90;99.90
40151;DHT22;25866;52.420;10.640;2023-09-12T00:16:03;19.90;99.90
40151;DHT22;25866;52.420;10.640;2023-09-12T00:18:31;19.90;99.90
40151;DHT22;25866;52.420;10.640;2023-09-12T00:21:06;19.90;99.90
40151;DHT22;25866;52.420;10.640;2023-09-12T00:23:32;19.80;99.90
40151;DHT22;25866;52.420;10.640;2023-09-12T00:25:58;19.80;99.90
40151;DHT22;25866;52.420;10.640;2023-09-12T00:28:26;19.80;99.90
40151;DHT22;25866;52.420;10.640;2023-09-12T00:31:00;19.70;99.90
40151;DHT22;25866;52.420;10.640;2023-09-12T00:33:28;19.70;99.90
40151;DHT22;25866;52.420;10.640;2023-09-12T00:35:54;19.60;99.90
40151;DHT22;25866;52.420;10.640;2023-09-12T00:38:19;19.50;99.90
40151;DHT22;25866;52.420;10.640;2023-09-12T00:40:45;19.50;99.90
40151;DHT22;25866;52.420;10.640;2023-09-12T00:43:11;19.50;99.90
40151;DHT22;25866;52.420;10.640;2023-09-12T00:45:37;19.40;99.90
40151;DHT22;25866;52.420;10.640;2023-09-12T00:48:11;19.50;99.90
40151;DHT22;25866;52.420;10.640;2023-09-12T00:50:38;19.50;99.90
40151;DHT22;25866;52.420;10.640;2023-09-12T00:53:06;19.60;99.90
40151;DHT22;25866;52.420;10.640;2023-09-12T00:55:34;19.70;99.90
40151;DHT22;25866;52.420;10.640;2023-09-12T00:58:11;19.70;99.90
40151;DHT22;25866;52.420;10.640;2023-09-12T01:00:37;19.70;99.90
40151;DHT22;25866;52.420;10.640;2023-09-12T01:03:04;19.70;99.90
40151;DHT22;25866;52.420;10.640;2023-09-12T01:05:29;19.70;99.90
40151;DHT22;25866;52.420;10.640;2023-09-12T01:07:55;19.60;99.90
40151;DHT22;25866;52.420;10.640;2023-09-12T01:10:22;19.60;99.90
40151;DHT22;25866;52.420;10.640;2023-09-12T01:12:47;19.60;99.90
40151;DHT22;25866;52.420;10.640;2023-09-12T01:15:13;19.60;99.90
40151;DHT22;25866;52.420;10.640;2023-09-12T01:17:45;19.60;99.90
40151;DHT22;25866;52.420;10.640;2023-09-12T01:20:16;19.60;99.90
40151;DHT22;25866;52.420;10.640;2023-09-12T01:28:29;19.40;99.90
40151;DHT22;25866;52.420;10.640;2023-09-12T01:30:57;19.20;99.90
40151;DHT22;25866;52.420;10.640;2023-09-12T01:33:24;19.10;99.90
40151;DHT22;25866;52.420;10.640;2023-09-12T01:35:50;19.10;99.90
40151;DHT22;25866;52.420;10.640;2023-09-12T01:38:37;19.10;99.90
40151;DHT22;25866;52.420;10.640;2023-09-12T01:41:03;19.00;99.90
40151;DHT22;25866;52.420;10.640;2023-09-12T01:43:30;19.00;99.90
40151;DHT22;25866;52.420;10.640;2023-09-12T01:45:58;19.00;99.90
40151;DHT22;25866;52.420;10.640;2023-09-12T01:48:35;19.00;99.90
40151;DHT22;25866;52.420;10.640;2023-09-12T01:51:02;19.00;99.90
40151;DHT22;25866;52.420;10.640;2023-09-12T01:53:29;19.00;99.90
40151;DHT22;25866;52.420;10.640;2023-09-12T01:55:57;19.00;99.90
40151;DHT22;25866;52.420;10.640;2023-09-12T01:58:25;19.00;99.90
40151;DHT22;25866;52.420;10.640;2023-09-12T02:00:52;19.00;99.90
40151;DHT22;25866;52.420;10.640;2023-09-12T02:03:17;18.90;99.90
40151;DHT22;25866;52.420;10.640;2023-09-12T02:05:43;19.00;99.90
40151;DHT22;25866;52.420;10.640;2023-09-12T02:08:10;19.00;99.90
40151;DHT22;25866;52.420;10.640;2023-09-12T02:10:36;19.10;99.90
40151;DHT22;25866;52.420;10.640;2023-09-12T02:13:02;19.00;99.90
40151;DHT22;25866;52.420;10.640;2023-09-12T02:15:27;19.00;99.90
40151;DHT22;25866;52.420;10.640;2023-09-12T02:17:53;19.00;99.90
40151;DHT22;25866;52.420;10.640;2023-09-12T02:20:19;19.00;99.90
40151;DHT22;25866;52.420;10.640;2023-09-12T02:22:46;19.00;99.90
40151;DHT22;25866;52.420;10.640;2023-09-12T02:25:11;19.00;99.90
40151;DHT22;25866;52.420;10.640;2023-09-12T02:27:37;19.00;99.90
40151;DHT22;25866;52.420;10.640;2023-09-12T02:30:04;19.00;99.90
40151;DHT22;25866;52.420;10.640;2023-09-12T02:32:30;19.00;99.90
40151;DHT22;25866;52.420;10.640;2023-09-12T02:34:56;19.00;99.90
40151;DHT22;25866;52.420;10.640;2023-09-12T02:37:23;19.00;99.90
40151;DHT22;25866;52.420;10.640;2023-09-12T02:39:48;19.10;99.90
40151;DHT22;25866;52.420;10.640;2023-09-12T02:42:14;19.00;99.90
40151;DHT22;25866;52.420;10.640;2023-09-12T02:44:40;19.00;99.90
40151;DHT22;25866;52.420;10.640;2023-09-12T02:47:06;18.90;99.90
40151;DHT22;25866;52.420;10.640;2023-09-12T02:49:33;18.90;99.90
40151;DHT22;25866;52.420;10.640;2023-09-12T02:51:59;18.90;99.90
40151;DHT22;25866;52.420;10.640;2023-09-12T02:54:25;18.80;99.90
40151;DHT22;25866;52.420;10.640;2023-09-12T02:56:50;18.80;99.90
40151;DHT22;25866;52.420;10.640;2023-09-12T02:59:25;18.80;99.90
40151;DHT22;25866;52.420;10.640;2023-09-12T03:01:51;18.80;99.90
40151;DHT22;25866;52.420;10.640;2023-09-12T03:04:17;18.80;99.90
40151;DHT22;25866;52.420;10.640;2023-09-12T03:06:43;18.70;99.90
40151;DHT22;25866;52.420;10.640;2023-09-12T03:09:10;18.70;99.90
40151;DHT22;25866;52.420;10.640;2023-09-12T03:11:37;18.70;99.90
40151;DHT22;25866;52.420;10.640;2023-09-12T03:14:02;18.60;99.90
40151;DHT22;25866;52.420;10.640;2023-09-12T03:16:28;18.60;99.90
40151;DHT22;25866;52.420;10.640;2023-09-12T03:18:54;18.50;99.90
40151;DHT22;25866;52.420;10.640;2023-09-12T03:21:19;18.50;99.90
40151;DHT22;25866;52.420;10.640;2023-09-12T03:23:45;18.50;99.90
40151;DHT22;25866;52.420;10.640;2023-09-12T03:26:11;18.60;99.90
40151;DHT22;25866;52.420;10.640;2023-09-12T03:28:45;18.50;99.90
40151;DHT22;25866;52.420;10.640;2023-09-12T03:31:13;18.40;99.90
40151;DHT22;25866;52.420;10.640;2023-09-12T03:33:40;18.30;99.90
40151;DHT22;25866;52.420;10.640;2023-09-12T03:36:07;18.30;99.90
40151;DHT22;25866;52.420;10.640;2023-09-12T03:38:34;18.40;99.90
40151;DHT22;25866;52.420;10.640;2023-09-12T03:41:00;18.40;99.90
40151;DHT22;25866;52.420;10.640;2023-09-12T03:43:26;18.40;99.90
40151;DHT22;25866;52.420;10.640;2023-09-12T03:45:53;18.40;99.90
40151;DHT22;25866;52.420;10.640;2023-09-12T03:48:19;18.30;99.90
40151;DHT22;25866;52.420;10.640;2023-09-12T03:50:46;18.40;99.90
40151;DHT22;25866;52.420;10.640;2023-09-12T03:53:14;18.30;99.90
40151;DHT22;25866;52.420;10.640;2023-09-12T03:55:39;18.40;99.90
40151;DHT22;25866;52.420;10.640;2023-09-12T03:58:05;18.40;99.90
40151;DHT22;25866;52.420;10.640;2023-09-12T04:00:37;18.40;99.90
40151;DHT22;25866;52.420;10.640;2023-09-12T04:03:03;18.40;99.90
40151;DHT22;25866;52.420;10.640;2023-09-12T04:05:29;18.30;99.90
40151;DHT22;25866;52.420;10.640;2023-09-12T04:07:54;18.40;99.90
40151;DHT22;25866;52.420;10.640;2023-09-12T04:10:26;18.40;99.90
40151;DHT22;25866;52.420;10.640;2023-09-12T04:12:52;18.40;99.90
40151;DHT22;25866;52.420;10.640;2023-09-12T04:15:18;18.40;99.90
40151;DHT22;25866;52.420;10.640;2023-09-12T04:17:43;18.50;99.90
40151;DHT22;25866;52.420;10.640;2023-09-12T04:20:09;18.40;99.90
40151;DHT22;25866;52.420;10.640;2023-09-12T04:22:40;18.40;99.90
40151;DHT22;25866;52.420;10.640;2023-09-12T04:25:06;18.40;99.90
40151;DHT22;25866;52.420;10.640;2023-09-12T04:27:32;18.50;99.90
40151;DHT22;25866;52.420;10.640;2023-09-12T04:29:57;18.50;99.90
40151;DHT22;25866;52.420;10.640;2023-09-12T04:32:23;18.40;99.90
40151;DHT22;25866;52.420;10.640;2023-09-12T04:34:49;18.40;99.90
40151;DHT22;25866;52.420;10.640;2023-09-12T04:37:15;18.40;99.90
40151;DHT22;25866;52.420;10.640;2023-09-12T04:39:49;18.20;99.90
40151;DHT22;25866;52.420;10.640;2023-09-12T04:42:15;18.30;99.90
40151;DHT22;25866;52.420;10.640;2023-09-12T04:44:41;18.40;99.90
40151;DHT22;25866;52.420;10.640;2023-09-12T04:47:08;18.40;99.90
40151;DHT22;25866;52.420;10.640;2023-09-12T04:49:35;18.50;99.90
40151;DHT22;25866;52.420;10.640;2023-09-12T04:52:04;18.50;99.90
40151;DHT22;25866;52.420;10.640;2023-09-12T04:54:29;18.60;99.90
40151;DHT22;25866;52.420;10.640;2023-09-12T04:56:55;18.60;99.90
40151;DHT22;25866;52.420;10.640;2023-09-12T04:59:21;18.60;99.90
40151;DHT22;25866;52.420;10.640;2023-09-12T05:01:47;18.60;99.90
40151;DHT22;25866;52.420;10.640;2023-09-12T05:04:12;18.60;99.90
40151;DHT22;25866;52.420;10.640;2023-09-12T05:06:38;18.60;99.90
40151;DHT22;25866;52.420;10.640;2023-09-12T05:09:05;18.60;99.90
40151;DHT22;25866;52.420;10.640;2023-09-12T05:11:34;18.70;99.90
40151;DHT22;25866;52.420;10.640;2023-09-12T05:14:00;18.70;99.90
40151;DHT22;25866;52.420;10.640;2023-09-12T05:16:29;18.70;99.90
40151;DHT22;25866;52.420;10.640;2023-09-12T05:18:54;18.70;99.90
40151;DHT22;25866;52.420;10.640;2023-09-12T05:21:20;18.70;99.90
40151;DHT22;25866;52.420;10.640;2023-09-12T05:23:46;18.70;99.90
40151;DHT22;25866;52.420;10.640;2023-09-12T05:26:12;18.70;99.90
40151;DHT22;25866;52.420;10.640;2023-09-12T05:28:37;18.80;99.90
40151;DHT22;25866;52.420;10.640;2023-09-12T05:31:04;18.90;99.90
40151;DHT22;25866;52.420;10.640;2023-09-12T05:33:30;18.90;99.90
40151;DHT22;25866;52.420;10.640;2023-09-12T05:35:56;19.00;99.90
40151;DHT22;25866;52.420;10.640;2023-09-12T05:38:21;19.10;99.90
40151;DHT22;25866;52.420;10.640;2023-09-12T05:40:50;19.20;99.90
40151;DHT22;25866;52.420;10.640;2023-09-12T05:43:16;19.30;99.90
40151;DHT22;25866;52.420;10.640;2023-09-12T05:45:43;19.40;99.90
40151;DHT22;25866;52.420;10.640;2023-09-12T05:48:09;19.40;99.90
40151;DHT22;25866;52.420;10.640;2023-09-12T05:50:38;19.50;99.90
40151;DHT22;25866;52.420;10.640;2023-09-12T05:53:04;19.60;99.90
40151;DHT22;25866;52.420;10.640;2023-09-12T05:55:30;19.70;99.90
40151;DHT22;25866;52.420;10.640;2023-09-12T05:57:55;19.70;99.90
40151;DHT22;25866;52.420;10.640;2023-09-12T06:00:27;19.80;99.90
40151;DHT22;25866;52.420;10.640;2023-09-12T06:02:54;19.90;99.90
40151;DHT22;25866;52.420;10.640;2023-09-12T06:05:19;19.90;99.90
40151;DHT22;25866;52.420;10.640;2023-09-12T06:07:45;19.90;99.90
40151;DHT22;25866;52.420;10.640;2023-09-12T06:10:12;19.80;99.90
40151;DHT22;25866;52.420;10.640;2023-09-12T06:12:38;19.90;99.90
40151;DHT22;25866;52.420;10.640;2023-09-12T06:15:04;19.90;99.90
40151;DHT22;25866;52.420;10.640;2023-09-12T06:17:30;19.80;99.90
40151;DHT22;25866;52.420;10.640;2023-09-12T06:19:56;19.80;99.90
40151;DHT22;25866;52.420;10.640;2023-09-12T06:22:22;19.80;99.90
40151;DHT22;25866;52.420;10.640;2023-09-12T06:24:51;19.70;99.90
40151;DHT22;25866;52.420;10.640;2023-09-12T06:27:16;19.70;99.90
40151;DHT22;25866;52.420;10.640;2023-09-12T06:29:46;19.70;99.90
40151;DHT22;25866;52.420;10.640;2023-09-12T06:32:17;19.70;99.90
40151;DHT22;25866;52.420;10.640;2023-09-12T06:34:43;19.70;99.90
40151;DHT22;25866;52.420;10.640;2023-09-12T06:37:13;19.60;99.90
40151;DHT22;25866;52.420;10.640;2023-09-12T06:39:39;19.60;99.90
40151;DHT22;25866;52.420;10.640;2023-09-12T06:42:05;19.60;99.90
40151;DHT22;25866;52.420;10.640;2023-09-12T06:44:31;19.60;99.90
40151;DHT22;25866;52.420;10.640;2023-09-12T06:46:57;19.60;99.90
40151;DHT22;25866;52.420;10.640;2023-09-12T06:49:22;19.60;99.90
40151;DHT22;25866;52.420;10.640;2023-09-12T06:51:48;19.70;99.90
40151;DHT22;25866;52.420;10.640;2023-09-12T06:54:14;19.70;99.90
40151;DHT22;25866;52.420;10.640;2023-09-12T06:56:40;19.70;99.90
40151;DHT22;25866;52.420;10.640;2023-09-12T06:59:08;19.60;99.90
40151;DHT22;25866;52.420;10.640;2023-09-12T07:01:35;19.60;99.90
40151;DHT22;25866;52.420;10.640;2023-09-12T07:04:01;19.50;99.90
40151;DHT22;25866;52.420;10.640;2023-09-12T07:06:27;19.40;99.90
40151;DHT22;25866;52.420;10.640;2023-09-12T07:08:52;19.30;99.90
40151;DHT22;25866;52.420;10.640;2023-09-12T07:11:18;19.20;99.90
40151;DHT22;25866;52.420;10.640;2023-09-12T07:13:45;19.10;99.90
40151;DHT22;25866;52.420;10.640;2023-09-12T07:16:11;19.00;99.90
40151;DHT22;25866;52.420;10.640;2023-09-12T07:18:37;19.00;99.90
40151;DHT22;25866;52.420;10.640;2023-09-12T07:21:08;18.90;99.90
40151;DHT22;25866;52.420;10.640;2023-09-12T07:23:36;18.90;99.90
40151;DHT22;25866;52.420;10.640;2023-09-12T07:26:03;19.00;99.90
40151;DHT22;25866;52.420;10.640;2023-09-12T07:28:30;18.90;99.90
40151;DHT22;25866;52.420;10.640;2023-09-12T07:30:56;18.90;99.90
40151;DHT22;25866;52.420;10.640;2023-09-12T07:33:23;18.90;99.90
40151;DHT22;25866;52.420;10.640;2023-09-12T07:35:52;18.90;99.90
40151;DHT22;25866;52.420;10.640;2023-09-12T07:38:18;18.80;99.90
40151;DHT22;25866;52.420;10.640;2023-09-12T07:40:45;18.80;99.90
40151;DHT22;25866;52.420;10.640;2023-09-12T07:43:11;18.70;99.90
40151;DHT22;25866;52.420;10.640;2023-09-12T07:45:37;18.70;99.90
40151;DHT22;25866;52.420;10.640;2023-09-12T07:48:07;18.70;99.90
40151;DHT22;25866;52.420;10.640;2023-09-12T07:50:33;18.70;99.90
40151;DHT22;25866;52.420;10.640;2023-09-12T07:53:00;18.70;99.90
40151;DHT22;25866;52.420;10.640;2023-09-12T07:55:26;18.60;99.90
40151;DHT22;25866;52.420;10.640;2023-09-12T07:57:55;18.60;99.90
40151;DHT22;25866;52.420;10.640;2023-09-12T08:00:21;18.60;99.90
40151;DHT22;25866;52.420;10.640;2023-09-12T08:02:47;18.60;99.90
40151;DHT22;25866;52.420;10.640;2023-09-12T08:05:13;18.60;99.90
40151;DHT22;25866;52.420;10.640;2023-09-12T08:07:41;18.70;99.90
40151;DHT22;25866;52.420;10.640;2023-09-12T08:10:07;18.70;99.90
40151;DHT22;25866;52.420;10.640;2023-09-12T08:12:36;18.70;99.90
40151;DHT22;25866;52.420;10.640;2023-09-12T08:15:04;18.70;99.90
40151;DHT22;25866;52.420;10.640;2023-09-12T08:17:31;18.70;99.90
40151;DHT22;25866;52.420;10.640;2023-09-12T08:19:57;18.70;99.90
40151;DHT22;25866;52.420;10.640;2023-09-12T08:22:24;18.70;99.90
40151;DHT22;25866;52.420;10.640;2023-09-12T08:24:50;18.70;99.90
40151;DHT22;25866;52.420;10.640;2023-09-12T08:27:16;18.70;99.90
40151;DHT22;25866;52.420;10.640;2023-09-12T08:29:42;18.70;99.90
40151;DHT22;25866;52.420;10.640;2023-09-12T08:32:10;18.80;99.90
40151;DHT22;25866;52.420;10.640;2023-09-12T08:34:36;18.80;99.90
40151;DHT22;25866;52.420;10.640;2023-09-12T08:37:02;18.80;99.90
40151;DHT22;25866;52.420;10.640;2023-09-12T08:39:43;18.90;99.90
40151;DHT22;25866;52.420;10.640;2023-09-12T08:42:12;18.90;99.90
40151;DHT22;25866;52.420;10.640;2023-09-12T08:44:40;19.00;99.90
40151;DHT22;25866;52.420;10.640;2023-09-12T08:47:09;19.00;99.90
40151;DHT22;25866;52.420;10.640;2023-09-12T08:49:37;19.00;99.90
40151;DHT22;25866;52.420;10.640;2023-09-12T08:52:04;19.10;99.90
40151;DHT22;25866;52.420;10.640;2023-09-12T08:54:35;19.10;99.90
40151;DHT22;25866;52.420;10.640;2023-09-12T08:57:03;19.10;99.90
40151;DHT22;25866;52.420;10.640;2023-09-12T08:59:33;19.20;99.90
40151;DHT22;25866;52.420;10.640;2023-09-12T09:02:00;19.30;99.90
40151;DHT22;25866;52.420;10.640;2023-09-12T09:04:33;19.30;99.90
40151;DHT22;25866;52.420;10.640;2023-09-12T09:07:03;19.30;99.90
40151;DHT22;25866;52.420;10.640;2023-09-12T09:09:30;19.30;99.90
40151;DHT22;25866;52.420;10.640;2023-09-12T09:11:57;19.30;99.90
40151;DHT22;25866;52.420;10.640;2023-09-12T09:14:23;19.30;99.90
40151;DHT22;25866;52.420;10.640;2023-09-12T09:16:50;19.30;99.90
40151;DHT22;25866;52.420;10.640;2023-09-12T09:19:16;19.40;99.90
40151;DHT22;25866;52.420;10.640;2023-09-12T09:21:45;19.40;99.90
40151;DHT22;25866;52.420;10.640;2023-09-12T09:24:13;19.50;99.90
40151;DHT22;25866;52.420;10.640;2023-09-12T09:26:47;19.60;99.90
40151;DHT22;25866;52.420;10.640;2023-09-12T09:29:18;19.70;99.90
40151;DHT22;25866;52.420;10.640;2023-09-12T09:31:49;19.80;99.90
40151;DHT22;25866;52.420;10.640;2023-09-12T09:34:18;19.80;99.90
40151;DHT22;25866;52.420;10.640;2023-09-12T09:36:50;19.90;99.90
40151;DHT22;25866;52.420;10.640;2023-09-12T09:39:19;20.00;99.90
40151;DHT22;25866;52.420;10.640;2023-09-12T09:41:51;20.10;99.90
40151;DHT22;25866;52.420;10.640;2023-09-12T09:44:18;20.20;99.90
40151;DHT22;25866;52.420;10.640;2023-09-12T09:46:46;20.40;99.90
40151;DHT22;25866;52.420;10.640;2023-09-12T09:49:19;20.60;99.90
40151;DHT22;25866;52.420;10.640;2023-09-12T09:51:45;20.70;99.90
40151;DHT22;25866;52.420;10.640;2023-09-12T09:54:13;20.80;99.90
40151;DHT22;25866;52.420;10.640;2023-09-12T09:56:49;21.00;99.90
40151;DHT22;25866;52.420;10.640;2023-09-12T09:59:23;21.20;99.90
40151;DHT22;25866;52.420;10.640;2023-09-12T10:01:50;21.30;99.90
40151;DHT22;25866;52.420;10.640;2023-09-12T10:04:21;21.50;99.90
40151;DHT22;25866;52.420;10.640;2023-09-12T10:06:49;21.60;99.90
40151;DHT22;25866;52.420;10.640;2023-09-12T10:09:19;21.60;99.90
40151;DHT22;25866;52.420;10.640;2023-09-12T10:11:48;21.70;99.90
40151;DHT22;25866;52.420;10.640;2023-09-12T10:14:20;21.70;99.90
40151;DHT22;25866;52.420;10.640;2023-09-12T10:16:48;21.60;99.90
40151;DHT22;25866;52.420;10.640;2023-09-12T10:19:22;21.70;99.90
40151;DHT22;25866;52.420;10.640;2023-09-12T10:21:53;21.80;99.90
40151;DHT22;25866;52.420;10.640;2023-09-12T10:24:21;21.80;99.90
40151;DHT22;25866;52.420;10.640;2023-09-12T10:26:50;21.90;99.90
40151;DHT22;25866;52.420;10.640;2023-09-12T10:29:16;22.00;99.90
40151;DHT22;25866;52.420;10.640;2023-09-12T10:31:43;21.90;99.90
40151;DHT22;25866;52.420;10.640;2023-09-12T10:34:11;21.90;99.90
40151;DHT22;25866;52.420;10.640;2023-09-12T10:36:42;21.90;99.90
40151;DHT22;25866;52.420;10.640;2023-09-12T10:39:10;21.80;99.90
40151;DHT22;25866;52.420;10.640;2023-09-12T10:41:40;21.70;99.90
40151;DHT22;25866;52.420;10.640;2023-09-12T10:44:16;21.60;99.90
40151;DHT22;25866;52.420;10.640;2023-09-12T10:46:43;21.60;99.90
40151;DHT22;25866;52.420;10.640;2023-09-12T10:49:12;21.70;99.90
40151;DHT22;25866;52.420;10.640;2023-09-12T10:51:40;21.90;99.90
40151;DHT22;25866;52.420;10.640;2023-09-12T10:54:07;22.00;99.90
40151;DHT22;25866;52.420;10.640;2023-09-12T10:56:34;22.10;99.90
40151;DHT22;25866;52.420;10.640;2023-09-12T11:01:39;22.30;99.90
40151;DHT22;25866;52.420;10.640;2023-09-12T11:06:49;22.40;99.90
40151;DHT22;25866;52.420;10.640;2023-09-12T11:09:22;22.40;99.90
40151;DHT22;25866;52.420;10.640;2023-09-12T11:11:57;22.40;99.90
40151;DHT22;25866;52.420;10.640;2023-09-12T11:14:24;22.30;99.90
40151;DHT22;25866;52.420;10.640;2023-09-12T11:17:21;22.30;99.90
40151;DHT22;25866;52.420;10.640;2023-09-12T11:19:50;22.30;99.90
40151;DHT22;25866;52.420;10.640;2023-09-12T11:22:44;22.30;99.90
40151;DHT22;25866;52.420;10.640;2023-09-12T11:25:21;22.30;99.90
40151;DHT22;25866;52.420;10.640;2023-09-12T11:30:24;22.40;99.90
40151;DHT22;25866;52.420;10.640;2023-09-12T11:32:52;22.40;99.90
40151;DHT22;25866;52.420;10.640;2023-09-12T11:35:27;22.40;99.90
40151;DHT22;25866;52.420;10.640;2023-09-12T11:37:57;22.30;99.90
40151;DHT22;25866;52.420;10.640;2023-09-12T11:40:43;22.30;99.90
40151;DHT22;25866;52.420;10.640;2023-09-12T11:43:24;22.30;99.90
40151;DHT22;25866;52.420;10.640;2023-09-12T11:45:51;22.30;99.90
40151;DHT22;25866;52.420;10.640;2023-09-12T11:48:18;22.20;99.90
40151;DHT22;25866;52.420;10.640;2023-09-12T11:50:49;22.10;99.90
40151;DHT22;25866;52.420;10.640;2023-09-12T11:53:23;22.10;99.90
40151;DHT22;25866;52.420;10.640;2023-09-12T11:55:53;22.00;99.90
40151;DHT22;25866;52.420;10.640;2023-09-12T11:58:19;22.00;99.90
40151;DHT22;25866;52.420;10.640;2023-09-12T12:00:48;22.00;99.90
40151;DHT22;25866;52.420;10.640;2023-09-12T12:03:15;22.00;99.90
40151;DHT22;25866;52.420;10.640;2023-09-12T12:05:42;22.00;99.90
40151;DHT22;25866;52.420;10.640;2023-09-12T12:08:08;21.90;99.90
40151;DHT22;25866;52.420;10.640;2023-09-12T12:10:36;21.80;99.90
40151;DHT22;25866;52.420;10.640;2023-09-12T12:13:05;21.70;99.90
40151;DHT22;25866;52.420;10.640;2023-09-12T12:15:30;21.60;99.90
40151;DHT22;25866;52.420;10.640;2023-09-12T12:17:58;21.60;99.90
40151;DHT22;25866;52.420;10.640;2023-09-12T12:20:24;21.60;99.90
40151;DHT22;25866;52.420;10.640;2023-09-12T12:22:50;21.50;99.90
40151;DHT22;25866;52.420;10.640;2023-09-12T12:25:20;21.50;99.90
40151;DHT22;25866;52.420;10.640;2023-09-12T12:27:45;21.40;99.90
40151;DHT22;25866;52.420;10.640;2023-09-12T12:30:13;21.40;99.90
40151;DHT22;25866;52.420;10.640;2023-09-12T12:32:44;21.40;99.90
40151;DHT22;25866;52.420;10.640;2023-09-12T12:35:25;21.40;99.90
40151;DHT22;25866;52.420;10.640;2023-09-12T12:37:55;21.40;99.90
40151;DHT22;25866;52.420;10.640;2023-09-12T12:40:24;21.50;99.90
40151;DHT22;25866;52.420;10.640;2023-09-12T12:42:50;21.50;99.90
40151;DHT22;25866;52.420;10.640;2023-09-12T12:45:22;21.50;99.90
40151;DHT22;25866;52.420;10.640;2023-09-12T12:47:57;21.50;99.90
40151;DHT22;25866;52.420;10.640;2023-09-12T12:50:23;21.50;99.90
40151;DHT22;25866;52.420;10.640;2023-09-12T12:52:49;21.50;99.90
40151;DHT22;25866;52.420;10.640;2023-09-12T12:55:16;21.50;99.90
40151;DHT22;25866;52.420;10.640;2023-09-12T12:57:47;21.50;99.90
40151;DHT22;25866;52.420;10.640;2023-09-12T13:00:14;21.50;99.90
40151;DHT22;25866;52.420;10.640;2023-09-12T13:02:41;21.60;99.90
40151;DHT22;25866;52.420;10.640;2023-09-12T13:05:28;21.70;99.90
40151;DHT22;25866;52.420;10.640;2023-09-12T13:07:56;21.80;99.90
40151;DHT22;25866;52.420;10.640;2023-09-12T13:10:22;21.90;99.90
40151;DHT22;25866;52.420;10.640;2023-09-12T13:12:49;22.00;99.90
40151;DHT22;25866;52.420;10.640;2023-09-12T13:15:16;22.00;99.90
40151;DHT22;25866;52.420;10.640;2023-09-12T13:17:43;22.00;99.90
40151;DHT22;25866;52.420;10.640;2023-09-12T13:20:09;21.90;99.90
40151;DHT22;25866;52.420;10.640;2023-09-12T13:22:36;21.80;99.90
40151;DHT22;25866;52.420;10.640;2023-09-12T13:25:02;21.70;99.90
40151;DHT22;25866;52.420;10.640;2023-09-12T13:27:28;21.70;99.90
40151;DHT22;25866;52.420;10.640;2023-09-12T13:29:54;21.50;99.90
40151;DHT22;25866;52.420;10.640;2023-09-12T13:32:20;21.40;99.90
40151;DHT22;25866;52.420;10.640;2023-09-12T13:34:46;21.40;99.90
40151;DHT22;25866;52.420;10.640;2023-09-12T13:37:12;21.40;99.90
40151;DHT22;25866;52.420;10.640;2023-09-12T13:39:37;21.40;99.90
40151;DHT22;25866;52.420;10.640;2023-09-12T13:42:05;21.40;99.90
40151;DHT22;25866;52.420;10.640;2023-09-12T13:44:33;21.40;99.90
40151;DHT22;25866;52.420;10.640;2023-09-12T13:46:59;21.50;99.90
40151;DHT22;25866;52.420;10.640;2023-09-12T13:49:25;21.60;99.90
40151;DHT22;25866;52.420;10.640;2023-09-12T13:51:50;21.70;99.90
40151;DHT22;25866;52.420;10.640;2023-09-12T13:54:16;22.00;99.90
40151;DHT22;25866;52.420;10.640;2023-09-12T13:56:43;22.10;99.90
40151;DHT22;25866;52.420;10.640;2023-09-12T13:59:09;22.30;99.90
40151;DHT22;25866;52.420;10.640;2023-09-12T14:01:35;22.60;99.90
40151;DHT22;25866;52.420;10.640;2023-09-12T14:04:02;22.70;99.90
40151;DHT22;25866;52.420;10.640;2023-09-12T14:06:29;22.70;99.90
40151;DHT22;25866;52.420;10.640;2023-09-12T14:08:55;22.70;99.90
40151;DHT22;25866;52.420;10.640;2023-09-12T14:11:21;22.80;99.90
40151;DHT22;25866;52.420;10.640;2023-09-12T14:13:47;22.90;99.90
40151;DHT22;25866;52.420;10.640;2023-09-12T14:16:13;22.90;99.90
40151;DHT22;25866;52.420;10.640;2023-09-12T14:18:39;22.90;99.90
40151;DHT22;25866;52.420;10.640;2023-09-12T14:21:05;22.90;99.90
40151;DHT22;25866;52.420;10.640;2023-09-12T14:23:31;22.90;99.90
40151;DHT22;25866;52.420;10.640;2023-09-12T14:25:56;22.80;99.90
40151;DHT22;25866;52.420;10.640;2023-09-12T14:28:22;22.90;99.90
40151;DHT22;25866;52.420;10.640;2023-09-12T14:30:48;22.90;99.90
40151;DHT22;25866;52.420;10.640;2023-09-12T14:33:15;22.90;99.90
40151;DHT22;25866;52.420;10.640;2023-09-12T14:35:43;22.80;99.90
40151;DHT22;25866;52.420;10.640;2023-09-12T14:38:09;22.80;99.90
40151;DHT22;25866;52.420;10.640;2023-09-12T14:40:35;22.70;99.90
40151;DHT22;25866;52.420;10.640;2023-09-12T14:43:01;22.60;99.90
40151;DHT22;25866;52.420;10.640;2023-09-12T14:45:29;22.60;99.90
40151;DHT22;25866;52.420;10.640;2023-09-12T14:47:56;22.60;99.90
40151;DHT22;25866;52.420;10.640;2023-09-12T14:50:23;22.60;99.90
40151;DHT22;25866;52.420;10.640;2023-09-12T14:52:50;22.50;99.90
40151;DHT22;25866;52.420;10.640;2023-09-12T14:55:16;22.50;99.90
40151;DHT22;25866;52.420;10.640;2023-09-12T14:57:42;22.50;99.90
40151;DHT22;25866;52.420;10.640;2023-09-12T15:00:09;22.40;99.90
40151;DHT22;25866;52.420;10.640;2023-09-12T15:02:37;22.40;99.90
40151;DHT22;25866;52.420;10.640;2023-09-12T15:05:03;22.30;99.90
40151;DHT22;25866;52.420;10.640;2023-09-12T15:07:29;22.30;99.90
40151;DHT22;25866;52.420;10.640;2023-09-12T15:09:56;22.30;99.90
40151;DHT22;25866;52.420;10.640;2023-09-12T15:12:22;22.30;99.90
40151;DHT22;25866;52.420;10.640;2023-09-12T15:14:48;22.30;99.90
40151;DHT22;25866;52.420;10.640;2023-09-12T15:17:15;22.30;99.90
40151;DHT22;25866;52.420;10.640;2023-09-12T15:19:40;22.30;99.90
40151;DHT22;25866;52.420;10.640;2023-09-12T15:22:08;22.30;99.90
40151;DHT22;25866;52.420;10.640;2023-09-12T15:24:34;22.20;99.90
40151;DHT22;25866;52.420;10.640;2023-09-12T15:26:59;22.20;99.90
40151;DHT22;25866;52.420;10.640;2023-09-12T15:29:25;22.10;99.90
40151;DHT22;25866;52.420;10.640;2023-09-12T15:31:52;22.10;99.90